createdAt,value
2023-04-02T00:00:20.125Z,9.30
2023-04-02T00:02:56.552Z,9.30
2023-04-02T00:05:51.897Z,9.30
2023-04-02T00:08:23.917Z,9.20
2023-04-02T00:10:54.067Z,9.30
2023-04-02T00:13:31.722Z,9.10
2023-04-02T00:16:03.456Z,9.20
2023-04-02T00:18:33.263Z,9.20
2023-04-02T00:21:10.097Z,9.20
2023-04-02T00:23:40.101Z,9.20
2023-04-02T00:26:23.124Z,9.20
2023-04-02T00:28:54.097Z,9.20
2023-04-02T00:36:23.210Z,9.20
2023-04-02T00:38:52.101Z,9.20
2023-04-02T00:41:27.235Z,9.20
2023-04-02T00:43:58.313Z,9.20
2023-04-02T00:46:32.142Z,6.00
2023-04-02T00:49:05.591Z,9.20
2023-04-02T00:51:39.911Z,9.20
2023-04-02T00:54:15.956Z,9.20
2023-04-02T00:56:46.506Z,9.20
2023-04-02T00:59:26.029Z,9.20
2023-04-02T01:01:55.758Z,9.20
2023-04-02T01:04:35.156Z,9.20
2023-04-02T01:07:06.689Z,9.20
2023-04-02T01:10:01.522Z,9.20
2023-04-02T01:12:46.807Z,9.20
2023-04-02T01:15:21.659Z,9.20
2023-04-02T01:18:13.762Z,9.20
2023-04-02T01:21:07.251Z,9.20
2023-04-02T01:23:46.102Z,9.20
2023-04-02T01:26:24.002Z,9.30
2023-04-02T01:29:02.468Z,9.20
2023-04-02T01:31:33.688Z,9.30
2023-04-02T01:36:43.663Z,9.10
2023-04-02T01:39:22.374Z,9.20
2023-04-02T01:41:57.662Z,10.20
2023-04-02T01:44:30.953Z,9.20
2023-04-02T01:52:01.289Z,12.40
2023-04-02T01:57:02.322Z,6.90
2023-04-02T01:59:33.598Z,9.20
2023-04-02T02:02:05.794Z,9.20
2023-04-02T02:07:15.530Z,9.20
2023-04-02T02:12:16.841Z,9.10
2023-04-02T02:14:49.673Z,9.10
2023-04-02T02:17:21.629Z,9.10
2023-04-02T02:19:52.625Z,9.10
2023-04-02T02:22:27.657Z,9.10
2023-04-02T02:24:59.412Z,9.10
2023-04-02T02:27:46.455Z,9.00
2023-04-02T02:30:21.921Z,12.30
2023-04-02T02:32:57.544Z,9.00
2023-04-02T02:35:30.917Z,9.00
2023-04-02T02:38:20.993Z,9.00
2023-04-02T02:40:53.969Z,9.00
2023-04-02T02:45:54.941Z,9.00
2023-04-02T02:48:28.725Z,8.90
2023-04-02T02:50:58.327Z,8.90
2023-04-02T02:56:28.997Z,8.90
2023-04-02T03:01:33.418Z,8.90
2023-04-02T03:06:34.511Z,8.90
2023-04-02T03:09:06.180Z,8.90
2023-04-02T03:11:42.813Z,8.90
2023-04-02T03:14:21.959Z,8.90
2023-04-02T03:16:59.281Z,8.90
2023-04-02T03:19:32.529Z,8.90
2023-04-02T03:22:07.701Z,8.90
2023-04-02T03:24:48.099Z,8.90
2023-04-02T03:27:21.157Z,8.90
2023-04-02T03:30:01.648Z,8.90
2023-04-02T03:32:36.624Z,8.90
2023-04-02T03:35:12.451Z,8.90
2023-04-02T03:37:46.143Z,8.90
2023-04-02T03:40:19.783Z,8.90
2023-04-02T03:42:52.223Z,8.90
2023-04-02T03:45:23.825Z,8.80
2023-04-02T03:47:57.882Z,8.80
2023-04-02T03:50:31.736Z,8.80
2023-04-02T03:53:03.348Z,8.80
2023-04-02T03:55:37.059Z,8.80
2023-04-02T03:58:12.455Z,11.60
2023-04-02T04:00:48.130Z,8.70
2023-04-02T04:03:21.120Z,8.70
2023-04-02T04:05:53.246Z,8.70
2023-04-02T04:08:28.191Z,6.20
2023-04-02T04:11:00.512Z,8.60
2023-04-02T04:13:36.036Z,8.70
2023-04-02T04:16:10.499Z,8.70
2023-04-02T04:18:46.748Z,8.70
2023-04-02T04:21:29.884Z,8.70
2023-04-02T04:24:05.944Z,8.70
2023-04-02T04:26:43.874Z,8.60
2023-04-02T04:29:25.798Z,8.70
2023-04-02T04:34:36.300Z,8.70
2023-04-02T04:37:07.986Z,8.70
2023-04-02T04:39:45.321Z,8.60
2023-04-02T04:42:25.027Z,8.60
2023-04-02T04:45:00.117Z,8.60
2023-04-02T04:47:33.247Z,8.60
2023-04-02T04:50:09.526Z,8.60
2023-04-02T04:52:41.259Z,8.60
2023-04-02T04:55:26.927Z,8.60
2023-04-02T04:58:28.544Z,6.60
2023-04-02T05:01:08.389Z,8.50
2023-04-02T05:03:47.722Z,8.50
2023-04-02T05:06:29.055Z,8.40
2023-04-02T05:09:04.824Z,8.40
2023-04-02T05:11:39.342Z,9.20
2023-04-02T05:14:14.095Z,8.40
2023-04-02T05:16:51.026Z,8.40
2023-04-02T05:19:24.740Z,8.30
2023-04-02T05:22:00.313Z,8.30
2023-04-02T05:24:38.624Z,8.30
2023-04-02T05:27:16.984Z,8.30
2023-04-02T05:29:51.988Z,8.30
2023-04-02T05:32:25.216Z,8.30
2023-04-02T05:35:00.559Z,8.30
2023-04-02T05:37:32.233Z,8.30
2023-04-02T05:40:13.634Z,8.30
2023-04-02T05:42:50.433Z,8.30
2023-04-02T05:45:31.234Z,8.30
2023-04-02T05:48:10.246Z,8.30
2023-04-02T05:50:45.019Z,8.30
2023-04-02T05:53:29.214Z,8.30
2023-04-02T05:56:01.412Z,8.20
2023-04-02T05:58:37.648Z,8.30
2023-04-02T06:01:21.990Z,7.80
2023-04-02T06:03:58.384Z,8.30
2023-04-02T06:06:49.972Z,8.30
2023-04-02T06:09:29.525Z,8.30
2023-04-02T06:12:04.718Z,11.20
2023-04-02T06:17:32.475Z,11.50
2023-04-02T06:20:04.166Z,8.40
2023-04-02T06:22:36.860Z,8.40
2023-04-02T06:25:17.113Z,8.30
2023-04-02T06:27:51.154Z,8.40
2023-04-02T06:30:35.113Z,8.40
2023-04-02T06:33:14.634Z,8.40
2023-04-02T06:35:56.619Z,8.40
2023-04-02T06:38:34.681Z,8.40
2023-04-02T06:41:21.365Z,8.40
2023-04-02T06:44:14.773Z,11.30
2023-04-02T06:47:05.951Z,8.40
2023-04-02T06:49:39.851Z,8.40
2023-04-02T06:52:17.980Z,8.40
2023-04-02T06:57:16.622Z,8.50
2023-04-02T07:02:30.544Z,8.60
2023-04-02T07:05:04.119Z,8.60
2023-04-02T07:12:36.590Z,8.90
2023-04-02T07:29:59.777Z,9.00
2023-04-02T07:47:21.549Z,9.10
2023-04-02T07:49:50.696Z,9.10
2023-04-02T07:59:50.929Z,9.20
2023-04-02T08:02:26.188Z,9.30
2023-04-02T08:19:54.955Z,9.50
2023-04-02T08:34:51.888Z,9.90
2023-04-02T08:42:26.672Z,10.00
2023-04-02T08:45:23.104Z,10.20
2023-04-02T08:47:56.324Z,10.30
2023-04-02T08:50:32.155Z,10.20
2023-04-02T08:53:01.711Z,10.40
2023-04-02T08:55:39.834Z,10.40
2023-04-02T08:58:18.488Z,10.50
2023-04-02T09:00:52.707Z,10.50
2023-04-02T09:03:27.399Z,10.50
2023-04-02T09:05:58.012Z,10.50
2023-04-02T09:08:27.357Z,10.60
2023-04-02T09:11:03.245Z,10.60
2023-04-02T09:13:34.142Z,10.70
2023-04-02T09:16:08.997Z,10.70
2023-04-02T09:18:38.413Z,10.70
2023-04-02T09:21:29.721Z,10.70
2023-04-02T09:26:28.827Z,10.70
2023-04-02T09:29:22.434Z,10.70
2023-04-02T09:31:58.287Z,10.70
2023-04-02T09:34:36.126Z,10.80
2023-04-02T09:37:17.896Z,10.80
2023-04-02T09:39:47.400Z,10.80
2023-04-02T09:42:34.113Z,10.80
2023-04-02T09:45:20.659Z,10.70
2023-04-02T09:50:32.932Z,10.70
2023-04-02T09:53:31.178Z,10.70
2023-04-02T09:56:17.578Z,10.60
2023-04-02T09:59:03.474Z,10.70
2023-04-02T10:01:36.132Z,10.60
2023-04-02T10:04:28.429Z,13.30
2023-04-02T10:09:38.576Z,10.70
2023-04-02T10:12:15.557Z,10.70
2023-04-02T10:14:50.382Z,10.80
2023-04-02T10:17:22.016Z,10.50
2023-04-02T10:19:53.794Z,10.90
2023-04-02T10:22:24.136Z,11.00
2023-04-02T10:25:04.025Z,11.10
2023-04-02T10:27:38.790Z,11.10
2023-04-02T10:30:26.646Z,11.10
2023-04-02T10:33:00.785Z,11.10
2023-04-02T10:35:41.407Z,11.10
2023-04-02T10:38:25.084Z,11.10
2023-04-02T10:41:01.654Z,11.10
2023-04-02T10:43:49.431Z,11.10
2023-04-02T10:46:28.201Z,11.00
2023-04-02T10:49:09.492Z,11.10
2023-04-02T10:51:46.331Z,11.20
2023-04-02T10:54:32.172Z,11.20
2023-04-02T10:57:09.829Z,11.10
2023-04-02T10:59:43.682Z,11.20
2023-04-02T11:02:36.098Z,11.20
2023-04-02T11:05:22.173Z,11.30
2023-04-02T11:08:03.560Z,11.40
2023-04-02T11:10:35.443Z,11.40
2023-04-02T11:13:14.764Z,11.50
2023-04-02T11:18:26.062Z,11.60
2023-04-02T11:21:01.000Z,11.60
2023-04-02T11:23:37.899Z,11.60
2023-04-02T11:26:30.737Z,11.60
2023-04-02T11:29:26.230Z,11.60
2023-04-02T11:32:17.048Z,11.70
2023-04-02T11:35:36.771Z,11.60
2023-04-02T11:38:42.613Z,11.80
2023-04-02T11:41:14.256Z,11.80
2023-04-02T11:44:01.212Z,11.90
2023-04-02T11:46:48.687Z,12.00
2023-04-02T11:50:00.288Z,12.10
2023-04-02T11:52:34.507Z,12.10
2023-04-02T11:55:27.538Z,12.10
2023-04-02T11:58:33.797Z,12.00
2023-04-02T12:01:45.564Z,12.10
2023-04-02T12:04:57.494Z,12.00
2023-04-02T12:07:58.324Z,12.10
2023-04-02T12:10:32.406Z,12.10
2023-04-02T12:15:45.422Z,12.20
2023-04-02T12:18:17.878Z,12.30
2023-04-02T12:20:53.270Z,12.40
2023-04-02T12:23:25.167Z,12.50
2023-04-02T12:26:01.980Z,12.60
2023-04-02T12:28:50.418Z,12.60
2023-04-02T12:31:46.470Z,12.60
2023-04-02T12:37:35.546Z,12.60
2023-04-02T12:40:07.439Z,12.60
2023-04-02T12:42:46.917Z,12.70
2023-04-02T12:45:29.611Z,12.70
2023-04-02T12:48:02.240Z,12.60
2023-04-02T12:50:35.288Z,12.60
2023-04-02T12:53:11.056Z,12.50
2023-04-02T12:58:29.296Z,12.40
2023-04-02T13:01:16.037Z,12.30
2023-04-02T13:06:24.392Z,12.20
2023-04-02T13:09:01.850Z,12.10
2023-04-02T13:11:41.188Z,12.00
2023-04-02T13:14:25.329Z,12.00
2023-04-02T13:19:43.302Z,11.90
2023-04-02T13:22:31.747Z,12.00
2023-04-02T13:25:03.854Z,12.00
2023-04-02T13:30:10.191Z,12.10
2023-04-02T13:35:10.745Z,12.70
2023-04-02T13:37:47.353Z,12.20
2023-04-02T13:40:54.696Z,12.30
2023-04-02T13:43:36.581Z,12.40
2023-04-02T13:46:24.135Z,12.40
2023-04-02T13:49:07.653Z,12.50
2023-04-02T13:51:48.695Z,12.50
2023-04-02T13:54:49.877Z,12.50
2023-04-02T13:57:25.537Z,12.50
2023-04-02T14:02:26.459Z,12.60
2023-04-02T14:05:07.082Z,12.70
2023-04-02T14:07:58.479Z,12.70
2023-04-02T14:10:55.451Z,12.70
2023-04-02T14:13:39.926Z,12.70
2023-04-02T14:16:31.310Z,12.60
2023-04-02T14:20:08.929Z,12.50
2023-04-02T14:22:36.996Z,12.30
2023-04-02T14:25:19.529Z,12.20
2023-04-02T14:27:58.368Z,12.10
2023-04-02T14:30:40.898Z,11.90
2023-04-02T14:33:19.229Z,11.90
2023-04-02T14:35:56.554Z,14.20
2023-04-02T14:38:30.953Z,11.70
2023-04-02T14:41:19.126Z,15.80
2023-04-02T14:43:53.484Z,11.70
2023-04-02T14:46:29.575Z,11.60
2023-04-02T14:49:02.675Z,11.60
2023-04-02T14:51:37.278Z,11.50
2023-04-02T14:54:51.674Z,11.50
2023-04-02T14:58:03.179Z,11.70
2023-04-02T15:00:37.706Z,11.50
2023-04-02T15:03:44.474Z,11.50
2023-04-02T15:06:52.503Z,11.40
2023-04-02T15:09:28.019Z,11.40
2023-04-02T15:12:01.229Z,11.40
2023-04-02T15:14:51.826Z,11.40
2023-04-02T15:18:37.029Z,11.40
2023-04-02T15:21:58.965Z,11.40
2023-04-02T15:25:05.225Z,11.40
2023-04-02T15:28:19.981Z,11.30
2023-04-02T15:31:03.861Z,11.30
2023-04-02T15:33:49.460Z,11.30
2023-04-02T15:36:57.752Z,11.30
2023-04-02T15:40:04.287Z,11.30
2023-04-02T15:42:40.857Z,11.20
2023-04-02T15:45:45.215Z,11.20
2023-04-02T15:49:05.274Z,11.20
2023-04-02T15:52:25.128Z,11.10
2023-04-02T15:55:28.062Z,11.10
2023-04-02T15:58:27.563Z,11.10
2023-04-02T16:01:18.992Z,11.10
2023-04-02T16:04:18.882Z,11.00
2023-04-02T16:07:04.188Z,11.00
2023-04-02T16:09:45.893Z,11.00
2023-04-02T16:12:28.673Z,11.00
2023-04-02T16:15:10.849Z,11.00
2023-04-02T16:17:43.437Z,11.00
2023-04-02T16:20:23.851Z,11.00
2023-04-02T16:23:01.086Z,10.90
2023-04-02T16:25:35.500Z,10.90
2023-04-02T16:28:16.138Z,10.90
2023-04-02T16:30:54.711Z,7.10
2023-04-02T16:33:33.818Z,10.80
2023-04-02T16:36:18.720Z,10.70
2023-04-02T16:38:58.080Z,10.60
2023-04-02T16:41:37.130Z,10.60
2023-04-02T16:44:21.882Z,10.50
2023-04-02T16:47:02.082Z,10.40
2023-04-02T16:49:42.598Z,10.40
2023-04-02T16:52:23.880Z,10.30
2023-04-02T16:55:25.765Z,10.30
2023-04-02T16:58:08.634Z,10.30
2023-04-02T17:00:46.091Z,10.30
2023-04-02T17:03:52.181Z,10.20
2023-04-02T17:06:32.850Z,10.20
2023-04-02T17:22:34.784Z,9.90
2023-04-02T17:29:25.240Z,9.90
2023-04-02T17:29:49.397Z,9.80
2023-04-02T17:32:23.114Z,8.80
2023-04-02T17:35:03.684Z,9.80
2023-04-02T17:38:20.347Z,9.80
2023-04-02T17:41:01.826Z,9.80
2023-04-02T17:43:56.983Z,9.70
2023-04-02T17:51:01.830Z,9.70
2023-04-02T19:59:37.439Z,5.80
2023-04-02T20:02:24.334Z,8.20
2023-04-02T20:11:08.223Z,8.10
2023-04-02T20:14:15.328Z,8.10
2023-04-02T20:16:53.726Z,8.00
2023-04-02T20:29:22.387Z,7.80
2023-04-02T20:42:02.903Z,7.70
2023-04-02T20:44:41.353Z,7.70
2023-04-02T20:49:59.206Z,7.60
2023-04-02T20:55:50.305Z,7.60
2023-04-02T20:58:20.156Z,7.50
2023-04-02T21:00:50.230Z,7.50
2023-04-02T21:05:48.348Z,7.50
2023-04-02T21:08:26.519Z,7.40
2023-04-02T21:15:56.055Z,7.30
2023-04-02T21:18:27.613Z,7.20
2023-04-02T21:21:01.313Z,7.20
2023-04-02T21:25:59.264Z,7.20
2023-04-02T21:28:28.215Z,7.00
2023-04-02T21:31:09.560Z,7.10
2023-04-02T21:33:39.577Z,7.10
2023-04-02T21:36:09.403Z,7.10
2023-04-02T21:41:14.988Z,7.00
2023-04-02T21:43:48.415Z,6.90
2023-04-02T21:46:23.614Z,6.90
2023-04-02T21:49:15.400Z,6.90
2023-04-02T21:51:48.798Z,6.80
2023-04-02T21:56:49.582Z,6.80
2023-04-02T21:59:19.372Z,6.70
2023-04-02T22:18:08.847Z,6.60
2023-04-02T22:20:39.173Z,6.60
2023-04-02T22:23:13.751Z,5.20
2023-04-02T22:33:12.501Z,6.60
2023-04-02T22:50:33.981Z,6.60
2023-04-02T23:07:55.542Z,6.70
2023-04-02T23:25:24.262Z,6.60
2023-04-02T23:42:48.809Z,6.70
